Orange8 — JL6278 — position and weather

sailwx.info

Track history (hours):
 
Tides and Currents Weather Stations Pressure Air Temp Water Temp Dewpoint Dewpoint Depression Visibility Wind Speed Wind Dir Waves Ship Positions

Orange8

Last reported at 2017-Apr-26 03:55 UTC. Time now 2017-Apr-26 03:59 UTC.
Position N 34°37' E 135°26'.

Length 164 m; draft 5 m.

Type: Passenger vessel. MMSI: 431501603.

Date/timePositionNaut miles runAvg speedWind from/ knotsBaromVisibWave heightAir tempDewpointWater temp
2017-Apr-26 03:55N 34°37' E 135°26'0 0.0
2017-Apr-26 03:19N 34°37' E 135°26'0 0.0
2017-Apr-26 02:55N 34°37' E 135°26'0 0.0
2017-Apr-26 02:25N 34°37' E 135°26'0 0.0
2017-Apr-26 01:49N 34°37' E 135°26'0 0.0
2017-Apr-26 01:19N 34°37' E 135°26'0 0.0
2017-Apr-26 00:37N 34°37' E 135°26'0 0.0
2017-Apr-26 00:25N 34°37' E 135°26'0 0.0
2017-Apr-25 23:55N 34°37' E 135°26'0 0.1
2017-Apr-25 23:25N 34°37' E 135°26'0 0.0
2017-Apr-25 22:55N 34°37' E 135°26'0 0.0
2017-Apr-25 22:19N 34°37' E 135°26'0 0.0
2017-Apr-25 21:55N 34°37' E 135°26'0 0.0
2017-Apr-25 21:19N 34°37' E 135°26'0 0.3
2017-Apr-25 21:00N 34°37' E 135°26'713.2
2017-Apr-25 20:30N 34°36' E 135°18'1019.5
2017-Apr-25 20:00N 34°34' E 135°06'816.8
2017-Apr-25 19:31N 34°36' E 134°56'4 0.1
2017-Apr-24 14:54N 34°35' E 134°52'717.2
2017-Apr-24 14:30N 34°38' E 134°59'1717.5
2017-Apr-24 13:30N 34°37' E 135°20'5 9.2
2017-Apr-24 13:00N 34°37' E 135°26'0 0.0
2017-Apr-24 12:28N 34°37' E 135°26'0 0.0
2017-Apr-24 11:58N 34°37' E 135°26'0 0.0
2017-Apr-24 11:28N 34°37' E 135°26'0 0.0
2017-Apr-24 10:04N 34°37' E 135°26'0 0.0
2017-Apr-24 09:52N 34°37' E 135°26'0 0.0
2017-Apr-24 09:22N 34°37' E 135°26'0 0.0
2017-Apr-24 08:40N 34°37' E 135°26'0 0.2
2017-Apr-24 08:28N 34°37' E 135°26'0 0.0
2017-Apr-24 07:58N 34°37' E 135°26'0 0.0
2017-Apr-24 07:28N 34°37' E 135°26'0 0.0
2017-Apr-24 06:58N 34°37' E 135°26'0 0.0
2017-Apr-24 06:22N 34°37' E 135°26'0 0.0
2017-Apr-24 05:58N 34°37' E 135°26'0 0.0
2017-Apr-24 05:22N 34°37' E 135°26'0 0.0
2017-Apr-24 04:52N 34°37' E 135°26'0 0.0
2017-Apr-24 04:16N 34°37' E 135°26'0 0.0
2017-Apr-24 03:58N 34°37' E 135°26'0 0.0
2017-Apr-24 03:28N 34°37' E 135°26'0 0.0
2017-Apr-24 02:40N 34°37' E 135°26'0 0.0
2017-Apr-24 02:28N 34°37' E 135°26'0 0.0
2017-Apr-24 01:58N 34°37' E 135°26'0 0.0
2017-Apr-24 01:28N 34°37' E 135°26'0 0.0
2017-Apr-24 00:58N 34°37' E 135°26'0 0.0
2017-Apr-24 00:22N 34°37' E 135°26'0 0.0
2017-Apr-23 23:58N 34°37' E 135°26'0 0.1
2017-Apr-23 23:22N 34°37' E 135°26'0 0.0
2017-Apr-23 22:58N 34°37' E 135°26'0 0.0
2017-Apr-23 21:52N 34°37' E 135°26'0 0.0
2017-Apr-23 21:28N 34°37' E 135°26'0 0.2
2017-Apr-23 21:00N 34°37' E 135°26'713.7
2017-Apr-23 20:30N 34°36' E 135°18'1019.8
2017-Apr-23 20:00N 34°35' E 135°06'816.3
2017-Apr-23 19:29N 34°36' E 134°56'1019.3
2017-Apr-23 18:58N 34°31' E 134°44'7 0.2
2017-Apr-22 14:50N 34°35' E 134°52'617.4
2017-Apr-22 14:30N 34°37' E 134°58'1717.5
2017-Apr-22 13:30N 34°37' E 135°19'510.6
2017-Apr-22 13:00N 34°37' E 135°26'0 0.0
2017-Apr-22 12:25N 34°37' E 135°26'0 0.0
2017-Apr-22 11:55N 34°37' E 135°26'0 0.0
2017-Apr-22 11:25N 34°37' E 135°26'0 0.0
2017-Apr-22 10:55N 34°37' E 135°26'0 0.0
2017-Apr-22 10:25N 34°37' E 135°26'0 0.0
2017-Apr-22 09:55N 34°37' E 135°26'0 0.0
2017-Apr-22 09:19N 34°37' E 135°26'0 0.0
2017-Apr-22 08:43N 34°37' E 135°26'0 0.0
2017-Apr-22 08:25N 34°37' E 135°26'0 0.0
2017-Apr-22 07:55N 34°37' E 135°26'0 0.0
2017-Apr-22 06:07N 34°37' E 135°26'0 0.0
2017-Apr-22 05:55N 34°37' E 135°26'0 0.0
2017-Apr-22 05:19N 34°37' E 135°26'0 0.0
2017-Apr-22 04:55N 34°37' E 135°26'0 0.0
2017-Apr-22 04:25N 34°37' E 135°26'0 0.0
2017-Apr-22 03:55N 34°37' E 135°26'0 0.0
2017-Apr-22 03:25N 34°37' E 135°26'0 0.0
2017-Apr-22 02:55N 34°37' E 135°26'0 0.0
2017-Apr-22 02:25N 34°37' E 135°26'0 0.0
2017-Apr-22 01:49N 34°37' E 135°26'0 0.0
2017-Apr-22 01:25N 34°37' E 135°26'0 0.0
2017-Apr-22 00:55N 34°37' E 135°26'0 0.0
2017-Apr-21 23:49N 34°37' E 135°26'0 0.0
2017-Apr-21 21:07N 34°37' E 135°26'0 0.4
2017-Apr-21 21:00N 34°37' E 135°26'713.7
2017-Apr-21 20:30N 34°35' E 135°18'1019.8
2017-Apr-21 20:00N 34°35' E 135°06'714.4
2017-Apr-21 19:30N 34°37' E 134°57'5 0.2
2017-Apr-20 14:56N 34°35' E 134°52'817.8
2017-Apr-20 14:30N 34°38' E 135°00'1717.6
2017-Apr-20 13:30N 34°37' E 135°22'3 5.4
2017-Apr-20 12:52N 34°37' E 135°26'0 0.0
2017-Apr-20 12:28N 34°37' E 135°26'0 0.0
2017-Apr-20 11:58N 34°37' E 135°26'0 0.0
2017-Apr-20 11:28N 34°37' E 135°26'0 0.0
2017-Apr-20 10:58N 34°37' E 135°26'0 0.0
2017-Apr-20 10:16N 34°37' E 135°26'0 0.0
2017-Apr-20 09:52N 34°37' E 135°26'0 0.0
2017-Apr-20 09:28N 34°37' E 135°26'0 0.0
2017-Apr-20 08:52N 34°37' E 135°26'0 0.0
2017-Apr-20 08:22N 34°37' E 135°26'0 0.0
2017-Apr-20 07:22N 34°37' E 135°26'0 0.0
2017-Apr-20 06:16N 34°37' E 135°26'0 0.0
2017-Apr-20 05:58N 34°37' E 135°26'0 0.0
2017-Apr-20 05:28N 34°37' E 135°26'0 0.0
2017-Apr-20 04:58N 34°37' E 135°26'0 0.0
2017-Apr-20 03:28N 34°37' E 135°26'0 0.0
2017-Apr-20 02:52N 34°37' E 135°26'0 0.0
2017-Apr-20 02:22N 34°37' E 135°26'0 0.0
2017-Apr-20 01:52N 34°37' E 135°26'0 0.0
2017-Apr-20 01:28N 34°37' E 135°26'0 0.0
2017-Apr-20 00:52N 34°37' E 135°26'0 0.0
2017-Apr-20 00:28N 34°37' E 135°26'0 0.0
2017-Apr-19 23:58N 34°37' E 135°26'0 0.0
2017-Apr-19 23:28N 34°37' E 135°26'0 0.0
2017-Apr-19 21:22N 34°37' E 135°26'0 0.3
2017-Apr-19 21:00N 34°37' E 135°26'612.4
2017-Apr-19 20:30N 34°36' E 135°18'1020.2
2017-Apr-19 20:00N 34°34' E 135°06'917.8
2017-Apr-19 19:30N 34°36' E 134°56'4 0.1
2017-Apr-18 14:52N 34°35' E 134°51'1517.9
2017-Apr-18 14:00N 34°36' E 135°10'917.8
2017-Apr-18 13:31N 34°37' E 135°20'4 8.9
2017-Apr-18 13:01N 34°37' E 135°26'0 0.0
2017-Apr-18 12:25N 34°37' E 135°26'0 0.0
2017-Apr-18 11:49N 34°37' E 135°26'0 0.0
2017-Apr-18 11:25N 34°37' E 135°26'0 0.0
2017-Apr-18 07:43N 34°37' E 135°26'0 0.0
2017-Apr-18 07:25N 34°37' E 135°26'0 0.0
2017-Apr-18 06:49N 34°37' E 135°26'0 0.0
2017-Apr-18 06:25N 34°37' E 135°26'0 0.0
2017-Apr-18 05:55N 34°37' E 135°26'0 0.0
2017-Apr-18 05:19N 34°37' E 135°26'0 0.0
2017-Apr-18 04:49N 34°37' E 135°26'0 0.0
2017-Apr-18 04:25N 34°37' E 135°26'0 0.0
2017-Apr-18 03:55N 34°37' E 135°26'0 0.0
2017-Apr-18 03:25N 34°37' E 135°26'0 0.0
2017-Apr-18 02:55N 34°37' E 135°26'0 0.0
2017-Apr-18 02:25N 34°37' E 135°26'0 0.0
2017-Apr-18 01:55N 34°37' E 135°26'0 0.0
2017-Apr-18 01:25N 34°37' E 135°26'0 0.0
2017-Apr-18 00:55N 34°37' E 135°26'0 0.0
2017-Apr-18 00:19N 34°37' E 135°26'0 0.0
2017-Apr-17 23:55N 34°37' E 135°26'0 0.0
2017-Apr-17 23:25N 34°37' E 135°26'0 0.0
2017-Apr-17 22:55N 34°37' E 135°26'0 0.0
2017-Apr-17 22:25N 34°37' E 135°26'0 0.0
2017-Apr-17 21:14N 34°37' E 135°26'0 0.2
2017-Apr-17 20:59N 34°37' E 135°26'612.3
2017-Apr-17 20:30N 34°36' E 135°19'918.3
2017-Apr-17 20:00N 34°34' E 135°08'918.4
2017-Apr-17 19:31N 34°36' E 134°57'6 0.2
2017-Apr-16 14:50N 34°35' E 134°50'1619.4
2017-Apr-16 14:00N 34°36' E 135°10'918.3
2017-Apr-16 13:30N 34°37' E 135°21'4 8.1
2017-Apr-16 13:00N 34°37' E 135°26'0 0.0
2017-Apr-16 12:25N 34°37' E 135°26'0 0.0
2017-Apr-16 11:49N 34°37' E 135°26'0 0.0
2017-Apr-16 11:25N 34°37' E 135°26'0 0.0
2017-Apr-16 10:55N 34°37' E 135°26'0 0.0
2017-Apr-16 10:25N 34°37' E 135°26'0 0.0
2017-Apr-16 09:43N 34°37' E 135°26'0 0.0
2017-Apr-16 09:25N 34°37' E 135°26'0 0.0
2017-Apr-16 08:55N 34°37' E 135°26'0 0.0
2017-Apr-16 08:25N 34°37' E 135°26'0 0.0
2017-Apr-16 07:55N 34°37' E 135°26'0 0.0
2017-Apr-16 07:25N 34°37' E 135°26'0 0.0
2017-Apr-16 06:55N 34°37' E 135°26'0 0.0
2017-Apr-16 06:25N 34°37' E 135°26'0 0.0
2017-Apr-16 05:55N 34°37' E 135°26'0 0.0
2017-Apr-16 05:25N 34°37' E 135°26'0 0.0
2017-Apr-16 04:55N 34°37' E 135°26'0 0.0
2017-Apr-16 04:25N 34°37' E 135°26'  
Track history (hours):
 
Tides and Currents Weather Stations Pressure Air Temp Water Temp Dewpoint Dewpoint Depression Visibility Wind Speed Wind Dir Waves Ship Positions

Orange8

Last reported at 2017-Apr-26 03:55 UTC. Time now 2017-Apr-26 03:59 UTC.
Position N 34°37' E 135°26'.

Length 164 m; draft 5 m.

Type: Passenger vessel. MMSI: 431501603.

Date/timePositionNaut miles runAvg speedWind from/ knotsBaromVisibWave heightAir tempDewpointWater temp
2017-Apr-26 03:55N 34°37' E 135°26'0 0.0
2017-Apr-26 03:19N 34°37' E 135°26'0 0.0
2017-Apr-26 02:55N 34°37' E 135°26'0 0.0
2017-Apr-26 02:25N 34°37' E 135°26'0 0.0
2017-Apr-26 01:49N 34°37' E 135°26'0 0.0
2017-Apr-26 01:19N 34°37' E 135°26'0 0.0
2017-Apr-26 00:37N 34°37' E 135°26'0 0.0
2017-Apr-26 00:25N 34°37' E 135°26'0 0.0
2017-Apr-25 23:55N 34°37' E 135°26'0 0.1
2017-Apr-25 23:25N 34°37' E 135°26'0 0.0
2017-Apr-25 22:55N 34°37' E 135°26'0 0.0
2017-Apr-25 22:19N 34°37' E 135°26'0 0.0
2017-Apr-25 21:55N 34°37' E 135°26'0 0.0
2017-Apr-25 21:19N 34°37' E 135°26'0 0.3
2017-Apr-25 21:00N 34°37' E 135°26'713.2
2017-Apr-25 20:30N 34°36' E 135°18'1019.5
2017-Apr-25 20:00N 34°34' E 135°06'816.8
2017-Apr-25 19:31N 34°36' E 134°56'4 0.1
2017-Apr-24 14:54N 34°35' E 134°52'717.2
2017-Apr-24 14:30N 34°38' E 134°59'1717.5
2017-Apr-24 13:30N 34°37' E 135°20'5 9.2
2017-Apr-24 13:00N 34°37' E 135°26'0 0.0
2017-Apr-24 12:28N 34°37' E 135°26'0 0.0
2017-Apr-24 11:58N 34°37' E 135°26'0 0.0
2017-Apr-24 11:28N 34°37' E 135°26'0 0.0
2017-Apr-24 10:04N 34°37' E 135°26'0 0.0
2017-Apr-24 09:52N 34°37' E 135°26'0 0.0
2017-Apr-24 09:22N 34°37' E 135°26'0 0.0
2017-Apr-24 08:40N 34°37' E 135°26'0 0.2
2017-Apr-24 08:28N 34°37' E 135°26'0 0.0
2017-Apr-24 07:58N 34°37' E 135°26'0 0.0
2017-Apr-24 07:28N 34°37' E 135°26'0 0.0
2017-Apr-24 06:58N 34°37' E 135°26'0 0.0
2017-Apr-24 06:22N 34°37' E 135°26'0 0.0
2017-Apr-24 05:58N 34°37' E 135°26'0 0.0
2017-Apr-24 05:22N 34°37' E 135°26'0 0.0
2017-Apr-24 04:52N 34°37' E 135°26'0 0.0
2017-Apr-24 04:16N 34°37' E 135°26'0 0.0
2017-Apr-24 03:58N 34°37' E 135°26'0 0.0
2017-Apr-24 03:28N 34°37' E 135°26'0 0.0
2017-Apr-24 02:40N 34°37' E 135°26'0 0.0
2017-Apr-24 02:28N 34°37' E 135°26'0 0.0
2017-Apr-24 01:58N 34°37' E 135°26'0 0.0
2017-Apr-24 01:28N 34°37' E 135°26'0 0.0
2017-Apr-24 00:58N 34°37' E 135°26'0 0.0
2017-Apr-24 00:22N 34°37' E 135°26'0 0.0
2017-Apr-23 23:58N 34°37' E 135°26'0 0.1
2017-Apr-23 23:22N 34°37' E 135°26'0 0.0
2017-Apr-23 22:58N 34°37' E 135°26'0 0.0
2017-Apr-23 21:52N 34°37' E 135°26'0 0.0
2017-Apr-23 21:28N 34°37' E 135°26'0 0.2
2017-Apr-23 21:00N 34°37' E 135°26'713.7
2017-Apr-23 20:30N 34°36' E 135°18'1019.8
2017-Apr-23 20:00N 34°35' E 135°06'816.3
2017-Apr-23 19:29N 34°36' E 134°56'1019.3
2017-Apr-23 18:58N 34°31' E 134°44'7 0.2
2017-Apr-22 14:50N 34°35' E 134°52'617.4
2017-Apr-22 14:30N 34°37' E 134°58'1717.5
2017-Apr-22 13:30N 34°37' E 135°19'510.6
2017-Apr-22 13:00N 34°37' E 135°26'0 0.0
2017-Apr-22 12:25N 34°37' E 135°26'0 0.0
2017-Apr-22 11:55N 34°37' E 135°26'0 0.0
2017-Apr-22 11:25N 34°37' E 135°26'0 0.0
2017-Apr-22 10:55N 34°37' E 135°26'0 0.0
2017-Apr-22 10:25N 34°37' E 135°26'0 0.0
2017-Apr-22 09:55N 34°37' E 135°26'0 0.0
2017-Apr-22 09:19N 34°37' E 135°26'0 0.0
2017-Apr-22 08:43N 34°37' E 135°26'0 0.0
2017-Apr-22 08:25N 34°37' E 135°26'0 0.0
2017-Apr-22 07:55N 34°37' E 135°26'0 0.0
2017-Apr-22 06:07N 34°37' E 135°26'0 0.0
2017-Apr-22 05:55N 34°37' E 135°26'0 0.0
2017-Apr-22 05:19N 34°37' E 135°26'0 0.0
2017-Apr-22 04:55N 34°37' E 135°26'0 0.0
2017-Apr-22 04:25N 34°37' E 135°26'0 0.0
2017-Apr-22 03:55N 34°37' E 135°26'0 0.0
2017-Apr-22 03:25N 34°37' E 135°26'0 0.0
2017-Apr-22 02:55N 34°37' E 135°26'0 0.0
2017-Apr-22 02:25N 34°37' E 135°26'0 0.0
2017-Apr-22 01:49N 34°37' E 135°26'0 0.0
2017-Apr-22 01:25N 34°37' E 135°26'0 0.0
2017-Apr-22 00:55N 34°37' E 135°26'0 0.0
2017-Apr-21 23:49N 34°37' E 135°26'0 0.0
2017-Apr-21 21:07N 34°37' E 135°26'0 0.4
2017-Apr-21 21:00N 34°37' E 135°26'713.7
2017-Apr-21 20:30N 34°35' E 135°18'1019.8
2017-Apr-21 20:00N 34°35' E 135°06'714.4
2017-Apr-21 19:30N 34°37' E 134°57'5 0.2
2017-Apr-20 14:56N 34°35' E 134°52'817.8
2017-Apr-20 14:30N 34°38' E 135°00'1717.6
2017-Apr-20 13:30N 34°37' E 135°22'3 5.4
2017-Apr-20 12:52N 34°37' E 135°26'0 0.0
2017-Apr-20 12:28N 34°37' E 135°26'0 0.0
2017-Apr-20 11:58N 34°37' E 135°26'0 0.0
2017-Apr-20 11:28N 34°37' E 135°26'0 0.0
2017-Apr-20 10:58N 34°37' E 135°26'0 0.0
2017-Apr-20 10:16N 34°37' E 135°26'0 0.0
2017-Apr-20 09:52N 34°37' E 135°26'0 0.0
2017-Apr-20 09:28N 34°37' E 135°26'0 0.0
2017-Apr-20 08:52N 34°37' E 135°26'0 0.0
2017-Apr-20 08:22N 34°37' E 135°26'0 0.0
2017-Apr-20 07:22N 34°37' E 135°26'0 0.0
2017-Apr-20 06:16N 34°37' E 135°26'0 0.0
2017-Apr-20 05:58N 34°37' E 135°26'0 0.0
2017-Apr-20 05:28N 34°37' E 135°26'0 0.0
2017-Apr-20 04:58N 34°37' E 135°26'0 0.0
2017-Apr-20 03:28N 34°37' E 135°26'0 0.0
2017-Apr-20 02:52N 34°37' E 135°26'0 0.0
2017-Apr-20 02:22N 34°37' E 135°26'0 0.0
2017-Apr-20 01:52N 34°37' E 135°26'0 0.0
2017-Apr-20 01:28N 34°37' E 135°26'0 0.0
2017-Apr-20 00:52N 34°37' E 135°26'0 0.0
2017-Apr-20 00:28N 34°37' E 135°26'0 0.0
2017-Apr-19 23:58N 34°37' E 135°26'0 0.0
2017-Apr-19 23:28N 34°37' E 135°26'0 0.0
2017-Apr-19 21:22N 34°37' E 135°26'0 0.3
2017-Apr-19 21:00N 34°37' E 135°26'612.4
2017-Apr-19 20:30N 34°36' E 135°18'1020.2
2017-Apr-19 20:00N 34°34' E 135°06'917.8
2017-Apr-19 19:30N 34°36' E 134°56'4 0.1
2017-Apr-18 14:52N 34°35' E 134°51'1517.9
2017-Apr-18 14:00N 34°36' E 135°10'917.8
2017-Apr-18 13:31N 34°37' E 135°20'4 8.9
2017-Apr-18 13:01N 34°37' E 135°26'0 0.0
2017-Apr-18 12:25N 34°37' E 135°26'0 0.0
2017-Apr-18 11:49N 34°37' E 135°26'0 0.0
2017-Apr-18 11:25N 34°37' E 135°26'0 0.0
2017-Apr-18 07:43N 34°37' E 135°26'0 0.0
2017-Apr-18 07:25N 34°37' E 135°26'0 0.0
2017-Apr-18 06:49N 34°37' E 135°26'0 0.0
2017-Apr-18 06:25N 34°37' E 135°26'0 0.0
2017-Apr-18 05:55N 34°37' E 135°26'0 0.0
2017-Apr-18 05:19N 34°37' E 135°26'0 0.0
2017-Apr-18 04:49N 34°37' E 135°26'0 0.0
2017-Apr-18 04:25N 34°37' E 135°26'0 0.0
2017-Apr-18 03:55N 34°37' E 135°26'0 0.0
2017-Apr-18 03:25N 34°37' E 135°26'0 0.0
2017-Apr-18 02:55N 34°37' E 135°26'0 0.0
2017-Apr-18 02:25N 34°37' E 135°26'0 0.0
2017-Apr-18 01:55N 34°37' E 135°26'0 0.0
2017-Apr-18 01:25N 34°37' E 135°26'0 0.0
2017-Apr-18 00:55N 34°37' E 135°26'0 0.0
2017-Apr-18 00:19N 34°37' E 135°26'0 0.0
2017-Apr-17 23:55N 34°37' E 135°26'0 0.0
2017-Apr-17 23:25N 34°37' E 135°26'0 0.0
2017-Apr-17 22:55N 34°37' E 135°26'0 0.0
2017-Apr-17 22:25N 34°37' E 135°26'0 0.0
2017-Apr-17 21:14N 34°37' E 135°26'0 0.2
2017-Apr-17 20:59N 34°37' E 135°26'612.3
2017-Apr-17 20:30N 34°36' E 135°19'918.3
2017-Apr-17 20:00N 34°34' E 135°08'918.4
2017-Apr-17 19:31N 34°36' E 134°57'6 0.2
2017-Apr-16 14:50N 34°35' E 134°50'1619.4
2017-Apr-16 14:00N 34°36' E 135°10'918.3
2017-Apr-16 13:30N 34°37' E 135°21'4 8.1
2017-Apr-16 13:00N 34°37' E 135°26'0 0.0
2017-Apr-16 12:25N 34°37' E 135°26'0 0.0
2017-Apr-16 11:49N 34°37' E 135°26'0 0.0
2017-Apr-16 11:25N 34°37' E 135°26'0 0.0
2017-Apr-16 10:55N 34°37' E 135°26'0 0.0
2017-Apr-16 10:25N 34°37' E 135°26'0 0.0
2017-Apr-16 09:43N 34°37' E 135°26'0 0.0
2017-Apr-16 09:25N 34°37' E 135°26'0 0.0
2017-Apr-16 08:55N 34°37' E 135°26'0 0.0
2017-Apr-16 08:25N 34°37' E 135°26'0 0.0
2017-Apr-16 07:55N 34°37' E 135°26'0 0.0
2017-Apr-16 07:25N 34°37' E 135°26'0 0.0
2017-Apr-16 06:55N 34°37' E 135°26'0 0.0
2017-Apr-16 06:25N 34°37' E 135°26'0 0.0
2017-Apr-16 05:55N 34°37' E 135°26'0 0.0
2017-Apr-16 05:25N 34°37' E 135°26'0 0.0
2017-Apr-16 04:55N 34°37' E 135°26'0 0.0
2017-Apr-16 04:25N 34°37' E 135°26'  

Dump ship's entire track history